ALF weather

Alta Airport
Alta, Finnmark, Norway

Public forecast

Using degrees Celsius for public forecast. Weather courtesy of forecast.io.

Current aviation weather report (METAR) for Alta Airport

Retrieved 2020/06/03 06:20 UTC (14 minutes ago):

ENAT 030620Z 05005KT 9999 FEW024 BKN044 08/04 Q1016 RMK WIND 700FT 06004KT

Closest aviation forecast (TAF) to Alta Airport

Closest forecast is Banak Airport, 33.3 nm (61.7 km) E. Retrieved 2020/06/03 06:57 UTC (0 seconds ago):

TAF TAF ENNA 030500Z 0306/0406 VRB05KT 9999 FEW035 SCT050 TEMPO 0312/0318 01010KT